Wetterdaten: aktuell Freitag, 20.10.2017 16:15
Datum Zeit Temp. A. Temp. 2 Feuchte A. Luftdruck Regen Wind Richtung Richtung Sonnenschein Windben
20.10.2017 16:15 14,2 C 13,9 C 94 % 1009,2 hPa 0,0 l/m 4,8 km/h (1 Bft) SO 135 0 min 16,1 km/h (3 Bft)
20.10.2017 16:10 14,2 C 13,9 C 94 % 1009,2 hPa 0,0 l/m 1,6 km/h (1 Bft) SO 135 0 min 16,1 km/h (3 Bft)
20.10.2017 16:05 14,2 C 13,9 C 94 % 1008,8 hPa 0,0 l/m 0,0 km/h (0 Bft) N 0 0 min 0,0 km/h (0 Bft)
20.10.2017 16:00 14,2 C 13,9 C 94 % 1008,6 hPa 0,0 l/m 4,8 km/h (1 Bft) SO 135 0 min 19,3 km/h (3 Bft)
20.10.2017 15:55 14,2 C 13,9 C 94 % 1008,7 hPa 0,0 l/m 6,4 km/h (2 Bft) SO 135 0 min 22,5 km/h (4 Bft)
20.10.2017 15:50 14,1 C 13,9 C 94 % 1008,9 hPa 0,0 l/m 8,0 km/h (2 Bft) SO 135 0 min 17,7 km/h (3 Bft)
20.10.2017 15:45 14,1 C 13,9 C 94 % 1009,1 hPa 0,0 l/m 9,7 km/h (2 Bft) SO 135 0 min 19,3 km/h (3 Bft)
20.10.2017 15:40 14,0 C 13,9 C 94 % 1009,3 hPa 0,0 l/m 4,8 km/h (1 Bft) SO 135 0 min 16,1 km/h (3 Bft)
20.10.2017 15:35 14,0 C 13,9 C 94 % 1009,4 hPa 0,0 l/m 6,4 km/h (2 Bft) SO 135 0 min 17,7 km/h (3 Bft)
20.10.2017 15:30 13,9 C 13,9 C 94 % 1009,4 hPa 0,0 l/m 8,0 km/h (2 Bft) SO 135 0 min 19,3 km/h (3 Bft)
20.10.2017 15:25 13,9 C 13,9 C 95 % 1009,5 hPa 0,0 l/m 3,2 km/h (1 Bft) SO 135 0 min 16,1 km/h (3 Bft)
20.10.2017 15:20 13,9 C 13,9 C 95 % 1009,3 hPa 0,0 l/m 9,7 km/h (2 Bft) SO 135 0 min 22,5 km/h (4 Bft)
20.10.2017 15:15 13,9 C 14,4 C 95 % 1009,3 hPa 0,0 l/m 4,8 km/h (1 Bft) SO 135 0 min 19,3 km/h (3 Bft)
20.10.2017 15:10 13,9 C 14,4 C 95 % 1009,3 hPa 0,0 l/m 0,0 km/h (0 Bft) N 0 0 min 0,0 km/h (0 Bft)
20.10.2017 15:05 13,8 C 14,4 C 95 % 1009,3 hPa 0,0 l/m 0,0 km/h (0 Bft) N 0 0 min 0,0 km/h (0 Bft)
20.10.2017 15:00 13,8 C 14,4 C 95 % 1009,2 hPa 0,0 l/m 0,0 km/h (0 Bft) N 0 0 min 0,0 km/h (0 Bft)
20.10.2017 14:55 13,6 C 14,4 C 95 % 1009,3 hPa 0,0 l/m 6,4 km/h (2 Bft) SO 135 0 min 16,1 km/h (3 Bft)
20.10.2017 14:50 13,6 C 13,9 C 95 % 1009,4 hPa 0,0 l/m 6,4 km/h (2 Bft) SO 135 0 min 14,5 km/h (3 Bft)
20.10.2017 14:45 13,5 C 13,9 C 95 % 1009,3 hPa 0,0 l/m 8,0 km/h (2 Bft) SO 135 0 min 19,3 km/h (3 Bft)
20.10.2017 14:40 13,4 C 13,9 C 95 % 1009,3 hPa 0,0 l/m 8,0 km/h (2 Bft) SO 135 0 min 17,7 km/h (3 Bft)
20.10.2017 14:35 13,4 C 13,9 C 94 % 1009,4 hPa 0,0 l/m 9,7 km/h (2 Bft) SO 135 0 min 17,7 km/h (3 Bft)
20.10.2017 14:30 13,3 C 13,3 C 94 % 1009,4 hPa 0,0 l/m 8,0 km/h (2 Bft) SO 135 0 min 20,9 km/h (4 Bft)
20.10.2017 14:25 13,4 C 12,8 C 94 % 1009,4 hPa 0,0 l/m 9,7 km/h (2 Bft) SO 135 0 min 20,9 km/h (4 Bft)
20.10.2017 14:20 13,4 C 12,8 C 94 % 1009,5 hPa 0,0 l/m 3,2 km/h (1 Bft) SO 135 0 min 16,1 km/h (3 Bft)
20.10.2017 14:15 13,4 C 12,8 C 94 % 1009,6 hPa 0,0 l/m 3,2 km/h (1 Bft) SO 135 0 min 12,9 km/h (3 Bft)
20.10.2017 14:10 13,4 C 13,3 C 94 % 1009,6 hPa 0,0 l/m 6,4 km/h (2 Bft) SO 135 0 min 16,1 km/h (3 Bft)
20.10.2017 14:05 13,5 C 13,3 C 94 % 1009,6 hPa 0,2 l/m 1,6 km/h (1 Bft) SO 135 0 min 14,5 km/h (3 Bft)
20.10.2017 14:00 13,6 C 13,3 C 93 % 1010,1 hPa 0,0 l/m 4,8 km/h (1 Bft) SO 135 0 min 17,7 km/h (3 Bft)
20.10.2017 13:55 13,6 C 12,8 C 93 % 1010,1 hPa 0,2 l/m 3,2 km/h (1 Bft) SO 135 0 min 8,0 km/h (2 Bft)
20.10.2017 13:50 13,6 C 12,8 C 93 % 1010,2 hPa 0,2 l/m 1,6 km/h (1 Bft) SO 135 0 min 12,9 km/h (3 Bft)
20.10.2017 13:45 13,6 C 13,3 C 93 % 1010,2 hPa 0,0 l/m 0,0 km/h (0 Bft) N 0 0 min 0,0 km/h (0 Bft)
20.10.2017 13:40 13,7 C 13,3 C 93 % 1010,2 hPa 0,2 l/m 0,0 km/h (0 Bft) N 0 0 min 0,0 km/h (0 Bft)
20.10.2017 13:35 13,7 C 13,3 C 93 % 1010,3 hPa 0,2 l/m 0,0 km/h (0 Bft) N 0 0 min 0,0 km/h (0 Bft)
20.10.2017 13:30 13,7 C 13,3 C 93 % 1010,5 hPa 0,2 l/m 1,6 km/h (1 Bft) SO 135 0 min 8,0 km/h (2 Bft)
20.10.2017 13:25 13,7 C 13,3 C 93 % 1010,6 hPa 0,0 l/m 1,6 km/h (1 Bft) SO 135 0 min 6,4 km/h (2 Bft)
20.10.2017 13:20 13,7 C 13,3 C 93 % 1010,6 hPa 0,2 l/m 0,0 km/h (0 Bft) SO 135 0 min 3,2 km/h (1 Bft)
20.10.2017 13:15 13,7 C 13,9 C 93 % 1010,8 hPa 0,0 l/m 0,0 km/h (0 Bft) SO 135 0 min 4,8 km/h (1 Bft)
20.10.2017 13:10 13,7 C 13,3 C 92 % 1010,9 hPa 0,0 l/m 0,0 km/h (0 Bft) N 0 0 min 0,0 km/h (0 Bft)
20.10.2017 13:05 13,8 C 13,3 C 92 % 1010,9 hPa 0,0 l/m 1,6 km/h (1 Bft) SO 135 0 min 8,0 km/h (2 Bft)
20.10.2017 13:00 13,9 C 13,3 C 91 % 1010,9 hPa 0,2 l/m 0,0 km/h (0 Bft) N 0 0 min 0,0 km/h (0 Bft)
20.10.2017 12:55 13,9 C 13,9 C 91 % 1010,9 hPa 0,0 l/m 0,0 km/h (0 Bft) N 0 0 min 0,0 km/h (0 Bft)
20.10.2017 12:50 14,0 C 13,3 C 90 % 1010,9 hPa 0,2 l/m 0,0 km/h (0 Bft) N 0 0 min 0,0 km/h (0 Bft)
20.10.2017 12:45 14,0 C 13,3 C 90 % 1011,0 hPa 0,0 l/m 0,0 km/h (0 Bft) N 0 0 min 0,0 km/h (0 Bft)
20.10.2017 12:40 14,0 C 13,9 C 90 % 1010,9 hPa 0,0 l/m 0,0 km/h (0 Bft) N 0 0 min 0,0 km/h (0 Bft)
20.10.2017 12:35 14,1 C 13,9 C 90 % 1010,9 hPa 0,0 l/m 0,0 km/h (0 Bft) N 0 0 min 0,0 km/h (0 Bft)
20.10.2017 12:30 14,1 C 13,9 C 90 % 1010,9 hPa 0,0 l/m 0,0 km/h (0 Bft) N 0 0 min 0,0 km/h (0 Bft)
20.10.2017 12:25 14,1 C 14,4 C 90 % 1010,9 hPa 0,0 l/m 0,0 km/h (0 Bft) N 0 0 min 0,0 km/h (0 Bft)
20.10.2017 12:20 14,1 C 14,4 C 91 % 1010,9 hPa 0,0 l/m 0,0 km/h (0 Bft) N 0 0 min 0,0 km/h (0 Bft)
20.10.2017 12:15 14,0 C 13,9 C 91 % 1011,0 hPa 0,0 l/m 0,0 km/h (0 Bft) N 0 0 min 0,0 km/h (0 Bft)
20.10.2017 12:10 14,0 C 14,4 C 91 % 1010,9 hPa 0,0 l/m 0,0 km/h (0 Bft) N 0 0 min 0,0 km/h (0 Bft)
20.10.2017 12:05 14,0 C 14,4 C 91 % 1010,8 hPa 0,0 l/m 0,0 km/h (0 Bft) N 0 0 min 0,0 km/h (0 Bft)
20.10.2017 12:00 14,1 C 13,9 C 89 % 1010,8 hPa 0,0 l/m 0,0 km/h (0 Bft) N 0 0 min 0,0 km/h (0 Bft)
20.10.2017 11:55 14,3 C 13,9 C 88 % 1010,8 hPa 0,0 l/m 0,0 km/h (0 Bft) N 0 0 min 0,0 km/h (0 Bft)
20.10.2017 11:50 14,3 C 15,0 C 88 % 1010,8 hPa 0,0 l/m 1,6 km/h (1 Bft) SO 135 0 min 8,0 km/h (2 Bft)
20.10.2017 11:45 14,4 C 16,1 C 88 % 1010,7 hPa 0,0 l/m 3,2 km/h (1 Bft) SO 135 0 min 8,0 km/h (2 Bft)
20.10.2017 11:40 14,4 C 16,7 C 88 % 1010,6 hPa 0,0 l/m 3,2 km/h (1 Bft) SO 135 0 min 8,0 km/h (2 Bft)
20.10.2017 11:35 14,4 C 17,8 C 88 % 1010,7 hPa 0,0 l/m 1,6 km/h (1 Bft) SO 135 0 min 8,0 km/h (2 Bft)
20.10.2017 11:30 14,4 C 17,8 C 87 % 1010,7 hPa 0,0 l/m 3,2 km/h (1 Bft) SO 135 0 min 8,0 km/h (2 Bft)
20.10.2017 11:25 14,4 C 17,8 C 87 % 1010,7 hPa 0,0 l/m 4,8 km/h (1 Bft) SO 135 0 min 12,9 km/h (3 Bft)
20.10.2017 11:20 14,3 C 18,3 C 88 % 1010,6 hPa 0,0 l/m 4,8 km/h (1 Bft) SO 135 0 min 16,1 km/h (3 Bft)
20.10.2017 11:15 14,2 C 17,8 C 88 % 1010,4 hPa 0,0 l/m 1,6 km/h (1 Bft) SO 135 0 min 8,0 km/h (2 Bft)
20.10.2017 11:10 13,9 C 17,2 C 89 % 1010,3 hPa 0,0 l/m 0,0 km/h (0 Bft) N 0 0 min 0,0 km/h (0 Bft)
20.10.2017 11:05 13,8 C 16,1 C 89 % 1010,3 hPa 0,0 l/m 1,6 km/h (1 Bft) SO 135 0 min 8,0 km/h (2 Bft)
20.10.2017 11:00 13,7 C 15,6 C 89 % 1010,2 hPa 0,0 l/m 0,0 km/h (0 Bft) SO 135 0 min 3,2 km/h (1 Bft)
20.10.2017 10:55 13,6 C 15,0 C 90 % 1010,2 hPa 0,0 l/m 0,0 km/h (0 Bft) N 0 0 min 0,0 km/h (0 Bft)
20.10.2017 10:50 13,5 C 15,0 C 90 % 1010,2 hPa 0,0 l/m 0,0 km/h (0 Bft) N 0 5 min 0,0 km/h (0 Bft)
20.10.2017 10:45 13,3 C 15,0 C 91 % 1010,2 hPa 0,0 l/m 0,0 km/h (0 Bft) N 0 0 min 0,0 km/h (0 Bft)
20.10.2017 10:40 13,1 C 15,0 C 92 % 1010,1 hPa 0,0 l/m 0,0 km/h (0 Bft) N 0 5 min 0,0 km/h (0 Bft)
20.10.2017 10:35 12,9 C 14,4 C 92 % 1010,2 hPa 0,0 l/m 0,0 km/h (0 Bft) N 0 0 min 0,0 km/h (0 Bft)
20.10.2017 10:30 12,9 C 14,4 C 93 % 1010,1 hPa 0,0 l/m 0,0 km/h (0 Bft) N 0 0 min 0,0 km/h (0 Bft)
20.10.2017 10:25 12,8 C 14,4 C 93 % 1010,0 hPa 0,0 l/m 0,0 km/h (0 Bft) N 0 0 min 0,0 km/h (0 Bft)
20.10.2017 10:20 12,7 C 14,4 C 94 % 1009,9 hPa 0,0 l/m 0,0 km/h (0 Bft) N 0 0 min 0,0 km/h (0 Bft)
20.10.2017 10:15 12,5 C 14,4 C 94 % 1009,8 hPa 0,0 l/m 0,0 km/h (0 Bft) N 0 0 min 0,0 km/h (0 Bft)
20.10.2017 10:10 12,3 C 13,9 C 95 % 1009,7 hPa 0,0 l/m 0,0 km/h (0 Bft) N 0 0 min 0,0 km/h (0 Bft)
20.10.2017 10:05 12,3 C 13,9 C 95 % 1009,8 hPa 0,0 l/m 0,0 km/h (0 Bft) N 0 0 min 0,0 km/h (0 Bft)
20.10.2017 10:00 12,2 C 13,3 C 96 % 1009,8 hPa 0,0 l/m 0,0 km/h (0 Bft) N 0 0 min 0,0 km/h (0 Bft)
20.10.2017 09:55 12,0 C 13,3 C 96 % 1009,8 hPa 0,0 l/m 0,0 km/h (0 Bft) SO 135 0 min 11,3 km/h (2 Bft)
20.10.2017 09:50 11,8 C 13,3 C 96 % 1009,7 hPa 0,0 l/m 1,6 km/h (1 Bft) SO 135 0 min 14,5 km/h (3 Bft)
20.10.2017 09:45 11,7 C 12,8 C 97 % 1009,7 hPa 0,0 l/m 1,6 km/h (1 Bft) SO 135 0 min 14,5 km/h (3 Bft)
20.10.2017 09:40 11,7 C 12,8 C 97 % 1009,7 hPa 0,0 l/m 0,0 km/h (0 Bft) N 0 0 min 0,0 km/h (0 Bft)
20.10.2017 09:35 11,7 C 12,2 C 97 % 1009,7 hPa 0,0 l/m 0,0 km/h (0 Bft) N 0 0 min 0,0 km/h (0 Bft)
20.10.2017 09:30 11,6 C 12,2 C 97 % 1009,6 hPa 0,0 l/m 0,0 km/h (0 Bft) N 0 0 min 0,0 km/h (0 Bft)
20.10.2017 09:25 11,6 C 12,2 C 97 % 1009,6 hPa 0,0 l/m 0,0 km/h (0 Bft) N 0 0 min 0,0 km/h (0 Bft)
20.10.2017 09:20 11,6 C 12,2 C 97 % 1009,6 hPa 0,0 l/m 0,0 km/h (0 Bft) N 0 0 min 0,0 km/h (0 Bft)
20.10.2017 09:15 11,6 C 12,2 C 97 % 1009,5 hPa 0,0 l/m 0,0 km/h (0 Bft) N 0 0 min 0,0 km/h (0 Bft)
20.10.2017 09:10 11,5 C 12,2 C 97 % 1009,5 hPa 0,0 l/m 0,0 km/h (0 Bft) N 0 0 min 0,0 km/h (0 Bft)
20.10.2017 09:05 11,5 C 12,2 C 97 % 1009,7 hPa 0,0 l/m 0,0 km/h (0 Bft) N 0 0 min 0,0 km/h (0 Bft)
20.10.2017 09:00 11,4 C 12,2 C 97 % 1009,8 hPa 0,0 l/m 0,0 km/h (0 Bft) N 0 0 min 0,0 km/h (0 Bft)
20.10.2017 08:55 11,4 C 11,7 C 97 % 1009,8 hPa 0,0 l/m 0,0 km/h (0 Bft) N 0 0 min 0,0 km/h (0 Bft)
20.10.2017 08:50 11,4 C 11,7 C 97 % 1009,8 hPa 0,0 l/m 0,0 km/h (0 Bft) N 0 0 min 0,0 km/h (0 Bft)
20.10.2017 08:45 11,4 C 11,7 C 97 % 1009,8 hPa 0,0 l/m 0,0 km/h (0 Bft) N 0 0 min 0,0 km/h (0 Bft)
20.10.2017 08:40 11,4 C 11,7 C 97 % 1009,8 hPa 0,0 l/m 0,0 km/h (0 Bft) N 0 0 min 0,0 km/h (0 Bft)
20.10.2017 08:35 11,3 C 11,7 C 97 % 1009,8 hPa 0,0 l/m 0,0 km/h (0 Bft) N 0 0 min 0,0 km/h (0 Bft)
20.10.2017 08:30 11,3 C 11,7 C 97 % 1009,8 hPa 0,0 l/m 0,0 km/h (0 Bft) N 0 0 min 0,0 km/h (0 Bft)
20.10.2017 08:25 11,3 C 11,1 C 97 % 1009,8 hPa 0,0 l/m 0,0 km/h (0 Bft) N 0 0 min 0,0 km/h (0 Bft)
20.10.2017 08:20 11,3 C 11,1 C 97 % 1009,9 hPa 0,0 l/m 0,0 km/h (0 Bft) N 0 0 min 0,0 km/h (0 Bft)
20.10.2017 08:15 11,3 C 11,1 C 97 % 1009,9 hPa 0,0 l/m 0,0 km/h (0 Bft) N 0 0 min 0,0 km/h (0 Bft)
20.10.2017 08:10 11,3 C 11,1 C 97 % 1009,8 hPa 0,0 l/m 0,0 km/h (0 Bft) N 0 0 min 0,0 km/h (0 Bft)
20.10.2017 08:05 11,3 C 11,1 C 97 % 1009,9 hPa 0,0 l/m 0,0 km/h (0 Bft) N 0 0 min 0,0 km/h (0 Bft)
20.10.2017 08:00 11,3 C 11,1 C 97 % 1010,0 hPa 0,0 l/m 0,0 km/h (0 Bft) N 0 0 min 0,0 km/h (0 Bft)
20.10.2017 07:55 11,3 C 11,1 C 97 % 1009,9 hPa 0,0 l/m 0,0 km/h (0 Bft) N 0 0 min 0,0 km/h (0 Bft)
20.10.2017 07:50 11,3 C 11,1 C 97 % 1009,9 hPa 0,0 l/m 0,0 km/h (0 Bft) N 0 0 min 0,0 km/h (0 Bft)
20.10.2017 07:45 11,3 C 11,1 C 97 % 1009,9 hPa 0,0 l/m 0,0 km/h (0 Bft) N 0 0 min 0,0 km/h (0 Bft)
20.10.2017 07:40 11,3 C 11,1 C 97 % 1009,9 hPa 0,0 l/m 0,0 km/h (0 Bft) N 0 0 min 0,0 km/h (0 Bft)
20.10.2017 07:35 11,3 C 11,1 C 97 % 1010,0 hPa 0,0 l/m 0,0 km/h (0 Bft) N 0 0 min 0,0 km/h (0 Bft)
20.10.2017 07:30 11,3 C 11,1 C 97 % 1010,0 hPa 0,0 l/m 0,0 km/h (0 Bft) N 0 0 min 0,0 km/h (0 Bft)
20.10.2017 07:25 11,3 C 11,1 C 97 % 1010,0 hPa 0,0 l/m 0,0 km/h (0 Bft) N 0 0 min 0,0 km/h (0 Bft)
20.10.2017 07:20 11,3 C 11,1 C 97 % 1010,0 hPa 0,0 l/m 0,0 km/h (0 Bft) N 0 0 min 0,0 km/h (0 Bft)
20.10.2017 07:15 11,3 C 11,1 C 97 % 1010,1 hPa 0,0 l/m 0,0 km/h (0 Bft) N 0 0 min 0,0 km/h (0 Bft)
20.10.2017 07:10 11,3 C 11,1 C 97 % 1010,0 hPa 0,0 l/m 0,0 km/h (0 Bft) N 0 0 min 0,0 km/h (0 Bft)
20.10.2017 07:05 11,3 C 11,1 C 97 % 1010,1 hPa 0,0 l/m 0,0 km/h (0 Bft) N 0 0 min 0,0 km/h (0 Bft)
20.10.2017 07:00 11,3 C 11,1 C 97 % 1010,2 hPa 0,0 l/m 0,0 km/h (0 Bft) N 0 0 min 0,0 km/h (0 Bft)
20.10.2017 06:55 11,3 C 11,1 C 97 % 1010,2 hPa 0,0 l/m 0,0 km/h (0 Bft) N 0 0 min 0,0 km/h (0 Bft)
20.10.2017 06:50 11,3 C 11,1 C 97 % 1010,2 hPa 0,0 l/m 0,0 km/h (0 Bft) N 0 0 min 0,0 km/h (0 Bft)
20.10.2017 06:45 11,3 C 11,1 C 96 % 1010,2 hPa 0,0 l/m 0,0 km/h (0 Bft) N 0 0 min 0,0 km/h (0 Bft)
20.10.2017 06:40 11,3 C 11,1 C 96 % 1010,2 hPa 0,0 l/m 0,0 km/h (0 Bft) N 0 0 min 0,0 km/h (0 Bft)
20.10.2017 06:35 11,4 C 11,1 C 96 % 1010,3 hPa 0,0 l/m 0,0 km/h (0 Bft) N 0 0 min 0,0 km/h (0 Bft)
20.10.2017 06:30 11,4 C 11,1 C 96 % 1010,4 hPa 0,0 l/m 0,0 km/h (0 Bft) N 0 0 min 0,0 km/h (0 Bft)
20.10.2017 06:25 11,4 C 11,1 C 96 % 1010,3 hPa 0,0 l/m 0,0 km/h (0 Bft) N 0 0 min 0,0 km/h (0 Bft)
20.10.2017 06:20 11,4 C 11,1 C 96 % 1010,3 hPa 0,0 l/m 0,0 km/h (0 Bft) N 0 0 min 0,0 km/h (0 Bft)
20.10.2017 06:15 11,4 C 11,1 C 96 % 1010,3 hPa 0,0 l/m 0,0 km/h (0 Bft) N 0 0 min 0,0 km/h (0 Bft)
20.10.2017 06:10 11,4 C 11,1 C 96 % 1010,4 hPa 0,0 l/m 0,0 km/h (0 Bft) N 0 0 min 0,0 km/h (0 Bft)
20.10.2017 06:05 11,4 C 11,1 C 96 % 1010,2 hPa 0,0 l/m 0,0 km/h (0 Bft) N 0 0 min 0,0 km/h (0 Bft)
20.10.2017 06:00 11,4 C 11,1 C 96 % 1010,3 hPa 0,0 l/m 0,0 km/h (0 Bft) N 0 0 min 0,0 km/h (0 Bft)
20.10.2017 05:55 11,4 C 11,1 C 97 % 1010,4 hPa 0,0 l/m 0,0 km/h (0 Bft) N 0 0 min 0,0 km/h (0 Bft)
20.10.2017 05:50 11,4 C 11,1 C 97 % 1010,4 hPa 0,0 l/m 0,0 km/h (0 Bft) N 0 0 min 0,0 km/h (0 Bft)
20.10.2017 05:45 11,4 C 11,1 C 97 % 1010,3 hPa 0,0 l/m 0,0 km/h (0 Bft) N 0 0 min 0,0 km/h (0 Bft)
20.10.2017 05:40 11,4 C 11,1 C 97 % 1010,3 hPa 0,0 l/m 0,0 km/h (0 Bft) N 0 0 min 0,0 km/h (0 Bft)
20.10.2017 05:35 11,4 C 11,1 C 97 % 1010,4 hPa 0,0 l/m 0,0 km/h (0 Bft) N 0 0 min 0,0 km/h (0 Bft)
20.10.2017 05:30 11,4 C 11,1 C 97 % 1010,5 hPa 0,0 l/m 0,0 km/h (0 Bft) SO 135 0 min 6,4 km/h (2 Bft)
20.10.2017 05:25 11,4 C 11,1 C 97 % 1010,4 hPa 0,0 l/m 1,6 km/h (1 Bft) SO 135 0 min 12,9 km/h (3 Bft)
20.10.2017 05:20 11,4 C 11,1 C 97 % 1010,5 hPa 0,0 l/m 0,0 km/h (0 Bft) SO 135 0 min 11,3 km/h (2 Bft)
20.10.2017 05:15 11,5 C 11,1 C 97 % 1010,4 hPa 0,0 l/m 0,0 km/h (0 Bft) N 0 0 min 0,0 km/h (0 Bft)
20.10.2017 05:10 11,5 C 11,1 C 97 % 1010,5 hPa 0,0 l/m 0,0 km/h (0 Bft) N 0 0 min 0,0 km/h (0 Bft)
20.10.2017 05:05 11,5 C 11,7 C 97 % 1010,6 hPa 0,0 l/m 0,0 km/h (0 Bft) N 0 0 min 0,0 km/h (0 Bft)
20.10.2017 05:00 11,5 C 11,7 C 97 % 1010,6 hPa 0,0 l/m 0,0 km/h (0 Bft) N 0 0 min 0,0 km/h (0 Bft)
20.10.2017 04:55 11,5 C 11,1 C 97 % 1010,5 hPa 0,0 l/m 0,0 km/h (0 Bft) N 0 0 min 0,0 km/h (0 Bft)
20.10.2017 04:50 11,5 C 11,1 C 96 % 1010,5 hPa 0,0 l/m 0,0 km/h (0 Bft) SO 135 0 min 8,0 km/h (2 Bft)
20.10.2017 04:45 11,6 C 11,7 C 96 % 1010,6 hPa 0,0 l/m 0,0 km/h (0 Bft) N 0 0 min 0,0 km/h (0 Bft)
20.10.2017 04:40 11,6 C 11,7 C 96 % 1010,6 hPa 0,0 l/m 0,0 km/h (0 Bft) SO 135 0 min 11,3 km/h (2 Bft)
20.10.2017 04:35 11,6 C 11,7 C 96 % 1010,6 hPa 0,0 l/m 0,0 km/h (0 Bft) N 0 0 min 0,0 km/h (0 Bft)
20.10.2017 04:30 11,6 C 11,7 C 96 % 1010,6 hPa 0,0 l/m 0,0 km/h (0 Bft) N 0 0 min 0,0 km/h (0 Bft)
20.10.2017 04:25 11,6 C 11,7 C 96 % 1010,6 hPa 0,0 l/m 0,0 km/h (0 Bft) N 0 0 min 0,0 km/h (0 Bft)
20.10.2017 04:20 11,6 C 11,7 C 96 % 1010,6 hPa 0,0 l/m 0,0 km/h (0 Bft) N 0 0 min 0,0 km/h (0 Bft)
20.10.2017 04:15 11,6 C 11,7 C 96 % 1010,6 hPa 0,0 l/m 0,0 km/h (0 Bft) N 0 0 min 0,0 km/h (0 Bft)
20.10.2017 04:10 11,6 C 11,7 C 96 % 1010,6 hPa 0,0 l/m 0,0 km/h (0 Bft) SO 135 0 min 14,5 km/h (3 Bft)
20.10.2017 04:05 11,6 C 11,7 C 96 % 1010,7 hPa 0,0 l/m 0,0 km/h (0 Bft) N 0 0 min 0,0 km/h (0 Bft)
20.10.2017 04:00 11,6 C 11,7 C 96 % 1010,8 hPa 0,0 l/m 0,0 km/h (0 Bft) N 0 0 min 0,0 km/h (0 Bft)
20.10.2017 03:55 11,6 C 11,7 C 96 % 1011,0 hPa 0,0 l/m 0,0 km/h (0 Bft) SO 135 0 min 8,0 km/h (2 Bft)
20.10.2017 03:50 11,6 C 11,7 C 96 % 1011,0 hPa 0,0 l/m 1,6 km/h (1 Bft) SO 135 0 min 11,3 km/h (2 Bft)
20.10.2017 03:45 11,6 C 11,7 C 96 % 1011,1 hPa 0,0 l/m 0,0 km/h (0 Bft) N 0 0 min 0,0 km/h (0 Bft)
20.10.2017 03:40 11,6 C 11,7 C 96 % 1011,1 hPa 0,0 l/m 0,0 km/h (0 Bft) N 0 0 min 0,0 km/h (0 Bft)
20.10.2017 03:35 11,6 C 11,7 C 96 % 1011,0 hPa 0,0 l/m 0,0 km/h (0 Bft) N 0 0 min 0,0 km/h (0 Bft)
20.10.2017 03:30 11,6 C 11,7 C 96 % 1011,0 hPa 0,0 l/m 0,0 km/h (0 Bft) N 0 0 min 0,0 km/h (0 Bft)
20.10.2017 03:25 11,6 C 11,7 C 96 % 1011,1 hPa 0,0 l/m 0,0 km/h (0 Bft) N 0 0 min 0,0 km/h (0 Bft)
20.10.2017 03:20 11,6 C 11,7 C 96 % 1011,0 hPa 0,0 l/m 0,0 km/h (0 Bft) N 0 0 min 0,0 km/h (0 Bft)
20.10.2017 03:15 11,6 C 11,7 C 96 % 1011,0 hPa 0,0 l/m 0,0 km/h (0 Bft) N 0 0 min 0,0 km/h (0 Bft)
20.10.2017 03:10 11,6 C 11,7 C 96 % 1011,0 hPa 0,0 l/m 0,0 km/h (0 Bft) N 0 0 min 0,0 km/h (0 Bft)
20.10.2017 03:05 11,6 C 11,7 C 96 % 1011,1 hPa 0,0 l/m 0,0 km/h (0 Bft) N 0 0 min 0,0 km/h (0 Bft)
20.10.2017 03:00 11,6 C 11,7 C 96 % 1011,2 hPa 0,0 l/m 0,0 km/h (0 Bft) N 0 0 min 0,0 km/h (0 Bft)
20.10.2017 02:55 11,6 C 11,7 C 96 % 1011,3 hPa 0,0 l/m 0,0 km/h (0 Bft) N 0 0 min 0,0 km/h (0 Bft)
20.10.2017 02:50 11,6 C 11,7 C 96 % 1011,4 hPa 0,0 l/m 1,6 km/h (1 Bft) SO 135 0 min 12,9 km/h (3 Bft)
20.10.2017 02:45 11,6 C 11,7 C 96 % 1011,3 hPa 0,0 l/m 3,2 km/h (1 Bft) SO 135 0 min 12,9 km/h (3 Bft)
20.10.2017 02:40 11,6 C 11,7 C 96 % 1011,3 hPa 0,0 l/m 1,6 km/h (1 Bft) SO 135 0 min 11,3 km/h (2 Bft)
20.10.2017 02:35 11,6 C 11,7 C 96 % 1011,1 hPa 0,0 l/m 1,6 km/h (1 Bft) SO 135 0 min 12,9 km/h (3 Bft)
20.10.2017 02:30 11,6 C 11,7 C 96 % 1011,2 hPa 0,0 l/m 1,6 km/h (1 Bft) SO 135 0 min 14,5 km/h (3 Bft)
20.10.2017 02:25 11,6 C 11,7 C 96 % 1011,3 hPa 0,0 l/m 0,0 km/h (0 Bft) N 0 0 min 0,0 km/h (0 Bft)
20.10.2017 02:20 11,7 C 11,7 C 96 % 1011,3 hPa 0,0 l/m 1,6 km/h (1 Bft) SO 135 0 min 12,9 km/h (3 Bft)
20.10.2017 02:15 11,7 C 11,7 C 96 % 1011,3 hPa 0,0 l/m 0,0 km/h (0 Bft) N 0 0 min 0,0 km/h (0 Bft)
20.10.2017 02:10 11,7 C 11,7 C 96 % 1011,3 hPa 0,0 l/m 0,0 km/h (0 Bft) N 0 0 min 0,0 km/h (0 Bft)
20.10.2017 02:05 11,6 C 11,7 C 96 % 1011,2 hPa 0,0 l/m 0,0 km/h (0 Bft) N 0 0 min 0,0 km/h (0 Bft)
20.10.2017 02:00 11,7 C 11,7 C 96 % 1011,3 hPa 0,0 l/m 0,0 km/h (0 Bft) N 0 0 min 0,0 km/h (0 Bft)
20.10.2017 01:55 11,7 C 11,7 C 96 % 1011,2 hPa 0,0 l/m 0,0 km/h (0 Bft) N 0 0 min 0,0 km/h (0 Bft)
20.10.2017 01:50 11,7 C 11,7 C 96 % 1011,2 hPa 0,0 l/m 0,0 km/h (0 Bft) N 0 0 min 0,0 km/h (0 Bft)
20.10.2017 01:45 11,7 C 11,7 C 96 % 1011,2 hPa 0,0 l/m 0,0 km/h (0 Bft) N 0 0 min 0,0 km/h (0 Bft)
20.10.2017 01:40 11,7 C 11,7 C 96 % 1011,1 hPa 0,0 l/m 0,0 km/h (0 Bft) N 0 0 min 0,0 km/h (0 Bft)
20.10.2017 01:35 11,7 C 11,7 C 96 % 1011,1 hPa 0,0 l/m 0,0 km/h (0 Bft) N 0 0 min 0,0 km/h (0 Bft)
20.10.2017 01:30 11,7 C 11,7 C 96 % 1011,2 hPa 0,0 l/m 0,0 km/h (0 Bft) N 0 0 min 0,0 km/h (0 Bft)
20.10.2017 01:25 11,7 C 11,7 C 96 % 1011,1 hPa 0,0 l/m 0,0 km/h (0 Bft) N 0 0 min 0,0 km/h (0 Bft)
20.10.2017 01:20 11,7 C 11,7 C 96 % 1011,1 hPa 0,0 l/m 0,0 km/h (0 Bft) N 0 0 min 0,0 km/h (0 Bft)
20.10.2017 01:15 11,7 C 11,7 C 96 % 1011,1 hPa 0,0 l/m 0,0 km/h (0 Bft) N 0 0 min 0,0 km/h (0 Bft)
20.10.2017 01:10 11,7 C 11,7 C 96 % 1011,2 hPa 0,0 l/m 1,6 km/h (1 Bft) SO 135 0 min 11,3 km/h (2 Bft)
20.10.2017 01:05 11,7 C 11,7 C 96 % 1011,1 hPa 0,0 l/m 1,6 km/h (1 Bft) SO 135 0 min 14,5 km/h (3 Bft)
20.10.2017 01:00 11,7 C 11,7 C 96 % 1011,1 hPa 0,0 l/m 0,0 km/h (0 Bft) SO 135 0 min 12,9 km/h (3 Bft)
20.10.2017 00:55 11,7 C 11,7 C 96 % 1011,1 hPa 0,0 l/m 0,0 km/h (0 Bft) SO 135 0 min 6,4 km/h (2 Bft)
20.10.2017 00:50 11,7 C 11,7 C 96 % 1011,2 hPa 0,0 l/m 3,2 km/h (1 Bft) SO 135 0 min 12,9 km/h (3 Bft)
20.10.2017 00:45 11,7 C 11,7 C 95 % 1011,3 hPa 0,0 l/m 1,6 km/h (1 Bft) SO 135 0 min 14,5 km/h (3 Bft)
20.10.2017 00:40 11,8 C 11,7 C 95 % 1011,4 hPa 0,0 l/m 4,8 km/h (1 Bft) SO 135 0 min 19,3 km/h (3 Bft)
20.10.2017 00:35 11,8 C 11,7 C 95 % 1011,2 hPa 0,0 l/m 3,2 km/h (1 Bft) SO 135 0 min 12,9 km/h (3 Bft)
20.10.2017 00:30 11,8 C 11,7 C 95 % 1011,2 hPa 0,0 l/m 1,6 km/h (1 Bft) SO 135 0 min 14,5 km/h (3 Bft)
20.10.2017 00:25 11,8 C 11,7 C 95 % 1011,2 hPa 0,0 l/m 0,0 km/h (0 Bft) SO 135 0 min 14,5 km/h (3 Bft)
20.10.2017 00:20 11,8 C 11,7 C 95 % 1011,4 hPa 0,0 l/m 3,2 km/h (1 Bft) SO 135 0 min 17,7 km/h (3 Bft)
20.10.2017 00:15 11,9 C 11,7 C 95 % 1011,3 hPa 0,0 l/m 3,2 km/h (1 Bft) SO 135 0 min 17,7 km/h (3 Bft)
20.10.2017 00:10 11,9 C 11,7 C 95 % 1011,4 hPa 0,0 l/m 3,2 km/h (1 Bft) SO 135 0 min 16,1 km/h (3 Bft)
20.10.2017 00:05 11,9 C 11,7 C 95 % 1011,5 hPa 0,0 l/m 4,8 km/h (1 Bft) SO 135 0 min 16,1 km/h (3 Bft)
20.10.2017 00:00 11,9 C 11,7 C 95 % 1011,5 hPa 0,0 l/m 0,0 km/h (0 Bft) SO 135 0 min 14,5 km/h (3 Bft)
_ Min-Zeit 06:35 04:50 11:25 16:00 - 00:00 - - - 01:15
Minimum _ 11,3 C 11,1 C 87 % 1008,6 hPa - 0,0 km/h (0 Bft) - - - 0,0 km/h (0 Bft)
_ Max-Zeit 11:20 11:20 04:55 00:00 12:50 14:25 - - 10:40 15:20
Maximum _ 14,4 C 18,3 C 97 % 1011,5 hPa 0,2 l/m 9,7 km/h
SO (2 Bft)
- - 5 min 22,5 km/h
SO (4 Bft)
Durchschnitt _ 12,4 C 12,6 C 95 % 1010,4 hPa #1,8 l/m 1,2 km/h (1 Bft) SO - #10 min. 5,0 km/h (1 Bft)